createdAt,value
2023-05-15T00:00:16.862Z,98760.59
2023-05-15T00:03:18.616Z,98760.41
2023-05-15T00:06:20.775Z,98755.69
2023-05-15T00:09:22.376Z,98744.56
2023-05-15T00:12:24.071Z,98756.25
2023-05-15T00:15:26.005Z,98747.53
2023-05-15T00:18:27.992Z,98737.28
2023-05-15T00:21:29.908Z,98747.81
2023-05-15T00:24:31.455Z,98747.56
2023-05-15T00:27:33.465Z,98746.78
2023-05-15T00:30:35.021Z,98753.47
2023-05-15T00:33:36.663Z,98747.19
2023-05-15T00:36:39.201Z,98754.41
2023-05-15T00:39:40.805Z,98745.94
2023-05-15T00:42:42.685Z,98745.06
2023-05-15T00:45:45.607Z,98752.41
2023-05-15T00:48:49.736Z,98756.00
2023-05-15T00:51:53.253Z,98743.47
2023-05-15T00:54:54.808Z,98737.81
2023-05-15T00:57:57.819Z,98749.56
2023-05-15T01:00:59.489Z,98746.34
2023-05-15T01:04:02.204Z,98742.38
2023-05-15T01:07:04.748Z,98741.13
2023-05-15T01:10:08.401Z,98743.84
2023-05-15T01:13:13.626Z,98754.66
2023-05-15T01:16:16.423Z,98758.94
2023-05-15T01:19:18.131Z,98764.28
2023-05-15T01:22:41.094Z,98764.81
2023-05-15T01:26:08.999Z,98749.59
2023-05-15T01:29:19.507Z,98733.22
2023-05-15T01:32:28.101Z,98747.78
2023-05-15T01:35:39.375Z,98753.84
2023-05-15T01:38:43.984Z,98759.81
2023-05-15T01:41:54.637Z,98763.72
2023-05-15T01:44:57.646Z,98750.94
2023-05-15T01:48:00.750Z,98753.00
2023-05-15T01:51:06.161Z,98749.28
2023-05-15T01:54:08.980Z,98747.53
2023-05-15T01:57:11.684Z,98748.31
2023-05-15T02:00:14.013Z,98748.00
2023-05-15T02:03:16.001Z,98749.03
2023-05-15T02:06:18.406Z,98745.78
2023-05-15T02:09:21.692Z,98747.16
2023-05-15T02:12:24.046Z,98739.81
2023-05-15T02:15:27.540Z,98738.00
2023-05-15T02:18:29.532Z,98729.63
2023-05-15T02:21:32.469Z,98736.03
2023-05-15T02:24:34.041Z,98744.72
2023-05-15T02:27:55.729Z,98738.19
2023-05-15T02:31:08.297Z,98736.84
2023-05-15T02:34:18.761Z,98736.72
2023-05-15T02:37:27.235Z,98738.13
2023-05-15T02:40:30.721Z,98739.69
2023-05-15T02:43:33.109Z,98725.81
2023-05-15T02:46:36.630Z,98739.16
2023-05-15T02:49:39.856Z,98733.88
2023-05-15T02:52:41.446Z,98737.94
2023-05-15T02:55:43.124Z,98731.03
2023-05-15T02:58:44.830Z,98732.75
2023-05-15T03:01:47.378Z,98739.03
2023-05-15T03:04:49.040Z,98727.25
2023-05-15T03:07:50.651Z,98725.56
2023-05-15T03:10:52.504Z,98725.97
2023-05-15T03:13:54.096Z,98728.25
2023-05-15T03:16:55.741Z,98728.69
2023-05-15T03:19:57.558Z,98730.03
2023-05-15T03:22:59.119Z,98731.41
2023-05-15T03:26:00.681Z,98739.09
2023-05-15T03:29:02.493Z,98733.69
2023-05-15T03:32:04.260Z,98748.88
2023-05-15T03:35:06.208Z,98745.84
2023-05-15T03:38:07.810Z,98739.28
2023-05-15T03:41:10.216Z,98748.53
2023-05-15T03:44:12.067Z,98737.81
2023-05-15T03:47:14.648Z,98750.31
2023-05-15T03:50:17.797Z,98748.41
2023-05-15T03:53:19.397Z,98744.56
2023-05-15T03:56:21.323Z,98744.97
2023-05-15T03:59:22.884Z,98747.69
2023-05-15T04:02:24.499Z,98744.91
2023-05-15T04:05:26.529Z,98747.81
2023-05-15T04:08:28.409Z,98752.69
2023-05-15T04:11:29.961Z,98737.47
2023-05-15T04:14:31.526Z,98739.47
2023-05-15T04:17:33.156Z,98739.72
2023-05-15T04:20:34.750Z,98748.06
2023-05-15T04:23:36.270Z,98741.53
2023-05-15T04:26:37.915Z,98746.47
2023-05-15T04:29:39.508Z,98747.06
2023-05-15T04:32:41.236Z,98751.13
2023-05-15T04:35:43.282Z,98739.16
2023-05-15T04:38:44.902Z,98738.94
2023-05-15T04:41:46.412Z,98738.69
2023-05-15T04:44:47.979Z,98746.25
2023-05-15T04:47:49.695Z,98746.00
2023-05-15T04:50:51.895Z,98747.25
2023-05-15T04:53:53.389Z,98753.66
2023-05-15T04:56:55.072Z,98750.84
2023-05-15T04:59:57.993Z,98747.06
2023-05-15T05:02:59.577Z,98751.72
2023-05-15T05:06:01.360Z,98756.44
2023-05-15T05:09:03.382Z,98755.66
2023-05-15T05:12:05.331Z,98753.81
2023-05-15T05:15:07.581Z,98756.75
2023-05-15T05:18:09.260Z,98763.28
2023-05-15T05:21:10.823Z,98761.22
2023-05-15T05:24:12.393Z,98761.50
2023-05-15T05:27:13.924Z,98771.75
2023-05-15T05:30:15.836Z,98767.31
2023-05-15T05:33:17.721Z,98758.84
2023-05-15T05:36:19.540Z,98768.28
2023-05-15T05:39:21.195Z,98772.66
2023-05-15T05:42:22.761Z,98772.06
2023-05-15T05:45:24.506Z,98769.38
2023-05-15T05:48:26.779Z,98765.97
2023-05-15T05:51:28.483Z,98758.59
2023-05-15T05:54:30.018Z,98765.09
2023-05-15T05:57:31.820Z,98769.72
2023-05-15T06:00:33.399Z,98761.84
2023-05-15T06:03:35.543Z,98755.03
2023-05-15T06:06:37.351Z,98774.00
2023-05-15T06:09:38.881Z,98764.66
2023-05-15T06:12:40.639Z,98766.03
2023-05-15T06:15:43.251Z,98766.50
2023-05-15T06:18:44.895Z,98768.16
2023-05-15T06:21:46.502Z,98774.44
2023-05-15T06:24:48.145Z,98778.38
2023-05-15T06:27:49.748Z,98770.59
2023-05-15T06:30:51.449Z,98768.94
2023-05-15T06:33:53.092Z,98769.47
2023-05-15T06:36:54.682Z,98774.88
2023-05-15T06:39:56.522Z,98776.28
2023-05-15T06:42:58.872Z,98771.56
2023-05-15T06:46:00.647Z,98777.78
2023-05-15T06:49:02.242Z,98767.53
2023-05-15T06:52:04.284Z,98779.34
2023-05-15T06:55:06.215Z,98772.31
2023-05-15T06:58:07.806Z,98777.41
2023-05-15T07:01:09.607Z,98780.56
2023-05-15T07:04:13.429Z,98776.34
2023-05-15T07:07:15.099Z,98780.34
2023-05-15T07:10:16.805Z,98780.66
2023-05-15T07:13:19.826Z,98778.56
2023-05-15T07:16:21.527Z,98780.72
2023-05-15T07:19:23.283Z,98775.59
2023-05-15T07:22:28.063Z,98782.72
2023-05-15T07:25:29.740Z,98779.13
2023-05-15T07:28:31.300Z,98785.53
2023-05-15T07:31:33.776Z,98781.19
2023-05-15T07:34:35.411Z,98780.13
2023-05-15T07:37:37.898Z,98780.88
2023-05-15T07:40:39.585Z,98781.66
2023-05-15T07:43:41.190Z,98787.63
2023-05-15T07:46:43.093Z,98790.25
2023-05-15T07:49:44.855Z,98788.06
2023-05-15T07:52:46.493Z,98781.50
2023-05-15T07:55:48.247Z,98792.03
2023-05-15T07:58:49.886Z,98773.88
2023-05-15T08:01:51.597Z,98779.91
2023-05-15T08:04:53.138Z,98775.00
2023-05-15T08:07:55.094Z,98777.06
2023-05-15T08:10:56.664Z,98781.47
2023-05-15T08:13:58.167Z,98774.78
2023-05-15T08:16:59.710Z,98772.34
2023-05-15T08:20:01.246Z,98773.25
2023-05-15T08:23:02.829Z,98769.84
2023-05-15T08:26:04.572Z,98769.31
2023-05-15T08:29:06.091Z,98773.41
2023-05-15T08:32:09.547Z,98768.75
2023-05-15T08:35:11.615Z,98776.81
2023-05-15T08:38:13.375Z,98763.69
2023-05-15T08:41:40.958Z,98759.94
2023-05-15T08:44:44.194Z,98770.28
2023-05-15T08:47:46.041Z,98767.81
2023-05-15T08:50:48.820Z,98769.38
2023-05-15T08:53:51.127Z,98773.25
2023-05-15T08:56:53.455Z,98765.53
2023-05-15T08:59:55.405Z,98767.31
2023-05-15T09:03:01.235Z,98773.03
2023-05-15T09:06:05.216Z,98761.94
2023-05-15T09:09:09.300Z,98765.25
2023-05-15T09:12:14.624Z,98750.84
2023-05-15T09:15:18.411Z,98760.94
2023-05-15T09:18:20.461Z,98737.97
2023-05-15T09:21:31.211Z,98744.44
2023-05-15T09:24:37.673Z,98742.41
2023-05-15T09:27:43.562Z,98739.28
2023-05-15T09:30:45.267Z,98747.38
2023-05-15T09:33:46.944Z,98741.00
2023-05-15T09:36:48.510Z,98739.03
2023-05-15T09:39:50.330Z,98736.41
2023-05-15T09:42:52.742Z,98735.34
2023-05-15T09:45:54.976Z,98728.28
2023-05-15T09:48:56.679Z,98729.09
2023-05-15T09:51:59.947Z,98724.75
2023-05-15T09:55:01.700Z,98724.00
2023-05-15T09:58:16.522Z,98717.31
2023-05-15T10:01:21.444Z,98712.63
2023-05-15T10:04:23.106Z,98720.84
2023-05-15T10:07:36.875Z,98708.78
2023-05-15T10:10:38.718Z,98713.31
2023-05-15T10:13:40.684Z,98703.66
2023-05-15T10:16:42.422Z,98703.28
2023-05-15T10:19:56.666Z,98692.75
2023-05-15T10:23:00.627Z,98700.56
2023-05-15T10:26:06.822Z,98693.53
2023-05-15T10:29:13.695Z,98678.66
2023-05-15T10:32:16.042Z,98683.44
2023-05-15T10:35:18.553Z,98671.34
2023-05-15T10:38:21.096Z,98665.16
2023-05-15T10:41:23.509Z,98665.16
2023-05-15T10:44:25.053Z,98659.38
2023-05-15T10:47:27.311Z,98663.44
2023-05-15T10:50:29.317Z,98664.75
2023-05-15T10:53:33.604Z,98640.53
2023-05-15T10:56:38.257Z,98639.22
2023-05-15T10:59:41.882Z,98636.84
2023-05-15T11:02:46.145Z,98636.31
2023-05-15T11:06:10.775Z,98639.06
2023-05-15T11:09:26.599Z,98639.38
2023-05-15T11:12:56.304Z,98636.63
2023-05-15T11:15:57.904Z,98626.06
2023-05-15T11:18:59.468Z,98641.59
2023-05-15T11:22:16.362Z,98632.56
2023-05-15T11:25:17.944Z,98627.44
2023-05-15T11:28:24.302Z,98625.19
2023-05-15T11:31:30.516Z,98613.72
2023-05-15T11:34:35.561Z,98614.63
2023-05-15T11:37:45.704Z,98623.91
2023-05-15T11:40:48.524Z,98611.16
2023-05-15T11:43:50.265Z,98617.69
2023-05-15T11:46:53.092Z,98627.38
2023-05-15T11:49:54.822Z,98619.28
2023-05-15T11:52:56.860Z,98618.41
2023-05-15T11:55:59.302Z,98614.28
2023-05-15T11:59:02.369Z,98614.22
2023-05-15T12:02:06.287Z,98603.75
2023-05-15T12:05:08.950Z,98601.53
2023-05-15T12:08:12.330Z,98602.25
2023-05-15T12:11:13.899Z,98611.41
2023-05-15T12:14:15.400Z,98632.50
2023-05-15T12:17:18.373Z,98637.56
2023-05-15T12:20:20.265Z,98649.50
2023-05-15T12:23:23.610Z,98651.22
2023-05-15T12:26:29.248Z,98665.63
2023-05-15T12:29:31.132Z,98670.38
2023-05-15T12:32:36.338Z,98684.78
2023-05-15T12:35:43.043Z,98692.84
2023-05-15T12:38:44.595Z,98697.81
2023-05-15T12:41:47.765Z,98699.56
2023-05-15T12:44:52.433Z,98699.72
2023-05-15T12:47:54.041Z,98684.50
2023-05-15T12:50:55.606Z,98658.94
2023-05-15T12:53:59.950Z,98653.88
2023-05-15T12:57:02.174Z,98649.38
2023-05-15T13:00:05.377Z,98644.78
2023-05-15T13:03:10.323Z,98633.91
2023-05-15T13:06:11.982Z,98638.63
2023-05-15T13:09:13.698Z,98639.59
2023-05-15T13:12:19.309Z,98634.03
2023-05-15T13:15:37.281Z,98636.25
2023-05-15T13:18:39.007Z,98634.69
2023-05-15T13:21:40.976Z,98623.28
2023-05-15T13:24:46.037Z,98632.03
2023-05-15T13:27:48.442Z,98636.66
2023-05-15T13:30:50.069Z,98657.69
2023-05-15T13:33:51.607Z,98686.00
2023-05-15T13:36:53.179Z,98685.28
2023-05-15T13:39:54.719Z,98686.22
2023-05-15T13:42:56.358Z,98687.28
2023-05-15T13:45:58.023Z,98688.50
2023-05-15T13:48:59.561Z,98697.69
2023-05-15T13:52:01.181Z,98692.59
2023-05-15T13:55:04.431Z,98691.88
2023-05-15T13:58:05.969Z,98681.59
2023-05-15T14:01:08.774Z,98677.63
2023-05-15T14:04:10.405Z,98674.06
2023-05-15T14:07:12.054Z,98674.00
2023-05-15T14:10:13.793Z,98672.16
2023-05-15T14:13:15.403Z,98656.84
2023-05-15T14:16:16.960Z,98649.38
2023-05-15T14:19:18.633Z,98650.00
2023-05-15T14:22:20.346Z,98636.34
2023-05-15T14:25:22.054Z,98636.34
2023-05-15T14:28:23.625Z,98641.13
2023-05-15T14:31:25.961Z,98636.22
2023-05-15T14:34:27.614Z,98634.41
2023-05-15T14:37:29.223Z,98618.19
2023-05-15T14:40:30.779Z,98615.81
2023-05-15T14:43:32.293Z,98622.72
2023-05-15T14:46:33.921Z,98610.41
2023-05-15T14:49:36.463Z,98619.63
2023-05-15T14:52:38.193Z,98629.34
2023-05-15T14:55:39.746Z,98637.97
2023-05-15T14:58:41.286Z,98636.34
2023-05-15T15:01:42.873Z,98641.50
2023-05-15T15:04:44.926Z,98646.13
2023-05-15T15:08:04.773Z,98652.72
2023-05-15T15:11:07.265Z,98660.34
2023-05-15T15:14:08.788Z,98668.84
2023-05-15T15:17:10.429Z,98660.28
2023-05-15T15:20:12.281Z,98673.06
2023-05-15T15:23:14.368Z,98661.75
2023-05-15T15:26:15.938Z,98661.38
2023-05-15T15:29:17.475Z,98663.28
2023-05-15T15:32:19.842Z,98663.00
2023-05-15T15:35:21.572Z,98667.97
2023-05-15T15:38:23.158Z,98670.06
2023-05-15T15:41:24.762Z,98677.06
2023-05-15T15:44:26.401Z,98668.94
2023-05-15T15:47:29.670Z,98684.88
2023-05-15T15:50:31.314Z,98680.59
2023-05-15T15:53:34.525Z,98686.84
2023-05-15T15:56:36.150Z,98678.63
2023-05-15T15:59:37.695Z,98670.16
2023-05-15T16:02:40.497Z,98672.31
2023-05-15T16:05:42.030Z,98676.25
2023-05-15T16:08:43.598Z,98670.25
2023-05-15T16:11:45.105Z,98676.38
2023-05-15T16:14:46.711Z,98671.06
2023-05-15T16:17:51.175Z,98673.41
2023-05-15T16:20:52.812Z,98669.56
2023-05-15T16:23:54.442Z,98653.16
2023-05-15T16:26:56.579Z,98670.34
2023-05-15T16:29:58.160Z,98664.81
2023-05-15T16:32:59.885Z,98660.97
2023-05-15T16:36:01.755Z,98674.59
2023-05-15T16:39:04.420Z,98676.53
2023-05-15T16:42:08.585Z,98675.34
2023-05-15T16:45:11.049Z,98669.03
2023-05-15T16:48:12.819Z,98674.38
2023-05-15T16:51:14.448Z,98672.28
2023-05-15T16:54:16.177Z,98674.19
2023-05-15T16:57:17.787Z,98667.78
2023-05-15T17:00:20.951Z,98666.78
2023-05-15T17:03:22.536Z,98663.25
2023-05-15T17:06:24.188Z,98667.69
2023-05-15T17:09:25.859Z,98668.88
2023-05-15T17:12:27.590Z,98658.22
2023-05-15T17:15:29.277Z,98663.38
2023-05-15T17:18:31.220Z,98664.44
2023-05-15T17:21:33.641Z,98671.16
2023-05-15T17:24:49.480Z,98665.25
2023-05-15T17:27:52.118Z,98671.69
2023-05-15T17:30:53.612Z,98669.06
2023-05-15T17:33:55.481Z,98657.41
2023-05-15T17:36:57.080Z,98662.66
2023-05-15T17:39:58.678Z,98653.47
2023-05-15T17:43:00.367Z,98677.03
2023-05-15T17:46:02.124Z,98678.84
2023-05-15T17:49:03.724Z,98686.13
2023-05-15T17:52:06.370Z,98686.75
2023-05-15T17:55:08.677Z,98697.38
2023-05-15T17:58:10.344Z,98697.00
2023-05-15T18:01:11.941Z,98706.63
2023-05-15T18:04:13.631Z,98704.03
2023-05-15T18:07:15.535Z,98703.78
2023-05-15T18:10:17.165Z,98710.22
2023-05-15T18:13:18.788Z,98711.31
2023-05-15T18:16:20.641Z,98719.75
2023-05-15T18:19:22.812Z,98721.00
2023-05-15T18:22:24.693Z,98725.63
2023-05-15T18:25:26.786Z,98731.31
2023-05-15T18:28:30.557Z,98722.31
2023-05-15T18:31:32.222Z,98716.34
2023-05-15T18:34:34.190Z,98727.63
2023-05-15T18:37:35.779Z,98734.63
2023-05-15T18:40:37.686Z,98743.81
2023-05-15T18:43:39.225Z,98741.69
2023-05-15T18:46:40.843Z,98736.47
2023-05-15T18:49:42.476Z,98737.25
2023-05-15T18:52:44.496Z,98733.31
2023-05-15T18:55:46.033Z,98736.13
2023-05-15T18:58:47.627Z,98741.47
2023-05-15T19:01:49.495Z,98742.31
2023-05-15T19:04:51.058Z,98730.41
2023-05-15T19:07:52.804Z,98745.59
2023-05-15T19:10:54.364Z,98742.63
2023-05-15T19:13:55.969Z,98749.97
2023-05-15T19:16:57.534Z,98741.78
2023-05-15T19:19:59.096Z,98745.19
2023-05-15T19:23:03.437Z,98746.53
2023-05-15T19:26:05.074Z,98754.78
2023-05-15T19:29:06.628Z,98754.69
2023-05-15T19:32:08.599Z,98753.84
2023-05-15T19:35:10.344Z,98756.75
2023-05-15T19:38:12.259Z,98760.19
2023-05-15T19:41:14.632Z,98774.56
2023-05-15T19:44:16.405Z,98769.03
2023-05-15T19:47:18.153Z,98777.28
2023-05-15T19:50:19.740Z,98778.41
2023-05-15T19:53:23.500Z,98777.28
2023-05-15T19:56:26.125Z,98793.91
2023-05-15T19:59:27.664Z,98794.38
2023-05-15T20:02:29.375Z,98792.38
2023-05-15T20:05:31.060Z,98782.41
2023-05-15T20:08:32.657Z,98790.66
2023-05-15T20:11:34.223Z,98794.91
2023-05-15T20:14:35.797Z,98793.34
2023-05-15T20:17:37.447Z,98794.13
2023-05-15T20:20:39.025Z,98799.81
2023-05-15T20:23:40.861Z,98798.31
2023-05-15T20:26:43.054Z,98794.22
2023-05-15T20:29:45.287Z,98793.88
2023-05-15T20:32:46.938Z,98785.63
2023-05-15T20:35:51.225Z,98794.63
2023-05-15T20:38:52.931Z,98801.31
2023-05-15T20:41:54.469Z,98803.22
2023-05-15T20:44:56.281Z,98799.41
2023-05-15T20:47:57.950Z,98790.75
2023-05-15T20:50:59.629Z,98790.75
2023-05-15T20:54:01.188Z,98795.47
2023-05-15T20:57:02.870Z,98787.88
2023-05-15T21:00:05.530Z,98793.00
2023-05-15T21:03:07.400Z,98784.09
2023-05-15T21:06:09.300Z,98794.25
2023-05-15T21:09:11.335Z,98797.53
2023-05-15T21:12:12.955Z,98798.66
2023-05-15T21:15:14.557Z,98798.31
2023-05-15T21:18:16.222Z,98797.19
2023-05-15T21:21:18.030Z,98803.31
2023-05-15T21:24:19.751Z,98802.06
2023-05-15T21:27:21.348Z,98813.47
2023-05-15T21:30:22.891Z,98818.38
2023-05-15T21:33:24.531Z,98807.63
2023-05-15T21:36:26.130Z,98827.94
2023-05-15T21:39:27.713Z,98827.06
2023-05-15T21:42:31.427Z,98816.53
2023-05-15T21:45:33.225Z,98812.72
2023-05-15T21:48:34.769Z,98830.22
2023-05-15T21:51:36.343Z,98832.94
2023-05-15T21:54:37.962Z,98832.41
2023-05-15T21:57:39.565Z,98840.38
2023-05-15T22:00:41.108Z,98844.91
2023-05-15T22:03:42.779Z,98842.75
2023-05-15T22:06:44.766Z,98850.44
2023-05-15T22:09:46.420Z,98837.41
2023-05-15T22:12:47.991Z,98852.44
2023-05-15T22:15:49.557Z,98854.69
2023-05-15T22:18:51.215Z,98857.59
2023-05-15T22:21:52.831Z,98860.28
2023-05-15T22:24:54.313Z,98864.84
2023-05-15T22:27:55.989Z,98865.09
2023-05-15T22:30:57.545Z,98873.69
2023-05-15T22:33:59.022Z,98874.63
2023-05-15T22:37:00.651Z,98867.19
2023-05-15T22:40:03.757Z,98865.59
2023-05-15T22:43:05.364Z,98875.06
2023-05-15T22:46:06.982Z,98865.59
2023-05-15T22:49:19.006Z,98874.19
2023-05-15T22:52:20.551Z,98874.78
2023-05-15T22:55:22.116Z,98869.00
2023-05-15T22:58:23.836Z,98870.31
2023-05-15T23:01:25.923Z,98849.88
2023-05-15T23:04:27.722Z,98864.41
2023-05-15T23:07:29.313Z,98856.09
2023-05-15T23:10:30.873Z,98863.25
2023-05-15T23:13:32.421Z,98854.16
2023-05-15T23:16:34.132Z,98857.31
2023-05-15T23:19:35.811Z,98859.34
2023-05-15T23:22:37.357Z,98849.63
2023-05-15T23:25:38.977Z,98854.06
2023-05-15T23:28:40.774Z,98854.75
2023-05-15T23:31:43.281Z,98869.69
2023-05-15T23:34:44.854Z,98848.84
2023-05-15T23:37:46.395Z,98840.16
2023-05-15T23:40:49.257Z,98849.09
2023-05-15T23:43:50.894Z,98843.69
2023-05-15T23:46:52.488Z,98835.16
2023-05-15T23:49:54.026Z,98842.53
2023-05-15T23:52:55.566Z,98840.16
2023-05-15T23:55:57.117Z,98840.97
2023-05-15T23:58:58.716Z,98839.81
